sensor_id;sensor_type;location;lat;lon;timestamp;P1;durP1;ratioP1;P2;durP2;ratioP2
20758;SDS011;10539;53.686;9.158;2023-03-14T00:01:17;17.57;;;2.83;;
20758;SDS011;10539;53.686;9.158;2023-03-14T00:03:45;17.03;;;2.90;;
20758;SDS011;10539;53.686;9.158;2023-03-14T00:06:12;13.63;;;2.63;;
20758;SDS011;10539;53.686;9.158;2023-03-14T00:08:38;21.17;;;3.03;;
20758;SDS011;10539;53.686;9.158;2023-03-14T00:11:09;20.27;;;3.03;;
20758;SDS011;10539;53.686;9.158;2023-03-14T00:13:36;15.30;;;2.60;;
20758;SDS011;10539;53.686;9.158;2023-03-14T00:16:11;16.67;;;2.80;;
20758;SDS011;10539;53.686;9.158;2023-03-14T00:18:38;18.77;;;3.33;;
20758;SDS011;10539;53.686;9.158;2023-03-14T00:21:05;20.97;;;3.87;;
20758;SDS011;10539;53.686;9.158;2023-03-14T00:23:33;22.83;;;3.53;;
20758;SDS011;10539;53.686;9.158;2023-03-14T00:26:01;20.83;;;2.77;;
20758;SDS011;10539;53.686;9.158;2023-03-14T00:28:28;18.53;;;2.70;;
20758;SDS011;10539;53.686;9.158;2023-03-14T00:30:55;22.60;;;3.43;;
20758;SDS011;10539;53.686;9.158;2023-03-14T00:33:21;15.30;;;2.80;;
20758;SDS011;10539;53.686;9.158;2023-03-14T00:36:00;20.10;;;2.87;;
20758;SDS011;10539;53.686;9.158;2023-03-14T00:38:28;19.67;;;3.33;;
20758;SDS011;10539;53.686;9.158;2023-03-14T00:40:54;17.30;;;2.97;;
20758;SDS011;10539;53.686;9.158;2023-03-14T00:43:20;18.53;;;2.77;;
20758;SDS011;10539;53.686;9.158;2023-03-14T00:45:47;15.70;;;2.43;;
20758;SDS011;10539;53.686;9.158;2023-03-14T00:48:17;18.50;;;2.93;;
20758;SDS011;10539;53.686;9.158;2023-03-14T00:50:44;23.77;;;3.57;;
20758;SDS011;10539;53.686;9.158;2023-03-14T00:53:10;26.50;;;3.43;;
20758;SDS011;10539;53.686;9.158;2023-03-14T00:55:40;25.87;;;3.17;;
20758;SDS011;10539;53.686;9.158;2023-03-14T00:58:07;14.77;;;2.67;;
20758;SDS011;10539;53.686;9.158;2023-03-14T01:00:34;20.30;;;2.73;;
20758;SDS011;10539;53.686;9.158;2023-03-14T01:03:01;18.80;;;2.57;;
20758;SDS011;10539;53.686;9.158;2023-03-14T01:05:27;14.40;;;2.90;;
20758;SDS011;10539;53.686;9.158;2023-03-14T01:07:54;19.37;;;3.60;;
20758;SDS011;10539;53.686;9.158;2023-03-14T01:10:19;19.90;;;3.07;;
20758;SDS011;10539;53.686;9.158;2023-03-14T01:12:45;17.83;;;3.90;;
20758;SDS011;10539;53.686;9.158;2023-03-14T01:15:11;16.93;;;2.80;;
20758;SDS011;10539;53.686;9.158;2023-03-14T01:17:36;14.80;;;2.87;;
20758;SDS011;10539;53.686;9.158;2023-03-14T01:20:06;17.13;;;2.60;;
20758;SDS011;10539;53.686;9.158;2023-03-14T01:22:35;17.37;;;3.07;;
20758;SDS011;10539;53.686;9.158;2023-03-14T01:25:03;19.87;;;2.80;;
20758;SDS011;10539;53.686;9.158;2023-03-14T01:27:29;16.23;;;2.77;;
20758;SDS011;10539;53.686;9.158;2023-03-14T01:29:55;21.80;;;3.27;;
20758;SDS011;10539;53.686;9.158;2023-03-14T01:32:21;17.00;;;3.07;;
20758;SDS011;10539;53.686;9.158;2023-03-14T01:34:47;22.13;;;3.60;;
20758;SDS011;10539;53.686;9.158;2023-03-14T01:37:12;19.40;;;2.77;;
20758;SDS011;10539;53.686;9.158;2023-03-14T01:39:38;19.73;;;3.43;;
20758;SDS011;10539;53.686;9.158;2023-03-14T01:42:04;19.00;;;3.07;;
20758;SDS011;10539;53.686;9.158;2023-03-14T01:47:16;16.97;;;2.93;;
20758;SDS011;10539;53.686;9.158;2023-03-14T01:49:42;16.77;;;2.70;;
20758;SDS011;10539;53.686;9.158;2023-03-14T01:52:43;19.73;;;2.93;;
20758;SDS011;10539;53.686;9.158;2023-03-14T01:55:14;14.03;;;2.53;;
20758;SDS011;10539;53.686;9.158;2023-03-14T01:57:47;18.43;;;2.63;;
20758;SDS011;10539;53.686;9.158;2023-03-14T02:00:18;20.83;;;3.00;;
20758;SDS011;10539;53.686;9.158;2023-03-14T02:02:50;17.27;;;2.83;;
20758;SDS011;10539;53.686;9.158;2023-03-14T02:05:23;18.17;;;3.03;;
20758;SDS011;10539;53.686;9.158;2023-03-14T02:08:01;18.47;;;3.00;;
20758;SDS011;10539;53.686;9.158;2023-03-14T02:10:30;19.23;;;3.00;;
20758;SDS011;10539;53.686;9.158;2023-03-14T02:12:59;12.20;;;2.97;;
20758;SDS011;10539;53.686;9.158;2023-03-14T02:15:28;12.00;;;2.20;;
20758;SDS011;10539;53.686;9.158;2023-03-14T02:17:54;15.53;;;2.70;;
20758;SDS011;10539;53.686;9.158;2023-03-14T02:22:58;16.33;;;3.00;;
20758;SDS011;10539;53.686;9.158;2023-03-14T02:28:11;14.07;;;2.97;;
20758;SDS011;10539;53.686;9.158;2023-03-14T02:30:37;8.17;;;3.03;;
20758;SDS011;10539;53.686;9.158;2023-03-14T02:33:04;10.10;;;2.80;;
20758;SDS011;10539;53.686;9.158;2023-03-14T02:35:56;10.07;;;2.87;;
20758;SDS011;10539;53.686;9.158;2023-03-14T02:38:24;11.23;;;2.93;;
20758;SDS011;10539;53.686;9.158;2023-03-14T02:40:56;9.73;;;2.63;;
20758;SDS011;10539;53.686;9.158;2023-03-14T02:43:22;9.10;;;2.90;;
20758;SDS011;10539;53.686;9.158;2023-03-14T02:45:48;10.17;;;3.37;;
20758;SDS011;10539;53.686;9.158;2023-03-14T02:48:16;15.17;;;2.93;;
20758;SDS011;10539;53.686;9.158;2023-03-14T02:50:46;10.07;;;3.03;;
20758;SDS011;10539;53.686;9.158;2023-03-14T02:53:16;14.10;;;3.00;;
20758;SDS011;10539;53.686;9.158;2023-03-14T02:55:45;10.93;;;3.47;;
20758;SDS011;10539;53.686;9.158;2023-03-14T02:58:14;7.00;;;3.13;;
20758;SDS011;10539;53.686;9.158;2023-03-14T03:00:40;13.53;;;3.93;;
20758;SDS011;10539;53.686;9.158;2023-03-14T03:03:06;10.20;;;3.30;;
20758;SDS011;10539;53.686;9.158;2023-03-14T03:05:32;12.10;;;3.80;;
20758;SDS011;10539;53.686;9.158;2023-03-14T03:07:58;13.63;;;3.50;;
20758;SDS011;10539;53.686;9.158;2023-03-14T03:10:24;12.80;;;4.60;;
20758;SDS011;10539;53.686;9.158;2023-03-14T03:12:50;8.10;;;3.70;;
20758;SDS011;10539;53.686;9.158;2023-03-14T03:15:16;14.50;;;4.60;;
20758;SDS011;10539;53.686;9.158;2023-03-14T03:17:43;12.50;;;4.60;;
20758;SDS011;10539;53.686;9.158;2023-03-14T03:20:09;16.60;;;4.57;;
20758;SDS011;10539;53.686;9.158;2023-03-14T03:22:36;14.70;;;5.00;;
20758;SDS011;10539;53.686;9.158;2023-03-14T03:25:03;13.13;;;4.77;;
20758;SDS011;10539;53.686;9.158;2023-03-14T03:27:30;13.63;;;4.63;;
20758;SDS011;10539;53.686;9.158;2023-03-14T03:29:57;11.63;;;4.17;;
20758;SDS011;10539;53.686;9.158;2023-03-14T03:32:23;7.00;;;2.20;;
20758;SDS011;10539;53.686;9.158;2023-03-14T03:34:48;6.07;;;1.30;;
20758;SDS011;10539;53.686;9.158;2023-03-14T03:37:14;8.77;;;1.60;;
20758;SDS011;10539;53.686;9.158;2023-03-14T03:39:40;4.87;;;1.53;;
20758;SDS011;10539;53.686;9.158;2023-03-14T03:42:06;4.07;;;1.10;;
20758;SDS011;10539;53.686;9.158;2023-03-14T03:44:32;2.87;;;1.00;;
20758;SDS011;10539;53.686;9.158;2023-03-14T03:46:58;7.60;;;0.90;;
20758;SDS011;10539;53.686;9.158;2023-03-14T03:49:24;4.97;;;0.80;;
20758;SDS011;10539;53.686;9.158;2023-03-14T03:51:53;2.63;;;0.80;;
20758;SDS011;10539;53.686;9.158;2023-03-14T03:54:18;4.17;;;0.83;;
20758;SDS011;10539;53.686;9.158;2023-03-14T03:56:44;5.57;;;1.00;;
20758;SDS011;10539;53.686;9.158;2023-03-14T03:59:10;5.93;;;1.30;;
20758;SDS011;10539;53.686;9.158;2023-03-14T04:01:36;4.50;;;1.10;;
20758;SDS011;10539;53.686;9.158;2023-03-14T04:04:02;8.30;;;1.43;;
20758;SDS011;10539;53.686;9.158;2023-03-14T04:06:28;7.27;;;1.50;;
20758;SDS011;10539;53.686;9.158;2023-03-14T04:08:54;3.20;;;0.93;;
20758;SDS011;10539;53.686;9.158;2023-03-14T04:11:20;3.80;;;1.47;;
20758;SDS011;10539;53.686;9.158;2023-03-14T04:13:45;5.20;;;1.20;;
20758;SDS011;10539;53.686;9.158;2023-03-14T04:16:13;4.47;;;0.93;;
20758;SDS011;10539;53.686;9.158;2023-03-14T04:18:41;10.07;;;1.50;;
20758;SDS011;10539;53.686;9.158;2023-03-14T04:21:07;4.83;;;1.40;;
20758;SDS011;10539;53.686;9.158;2023-03-14T04:23:33;7.77;;;1.80;;
20758;SDS011;10539;53.686;9.158;2023-03-14T04:26:01;7.20;;;1.60;;
20758;SDS011;10539;53.686;9.158;2023-03-14T04:28:27;8.93;;;1.80;;
20758;SDS011;10539;53.686;9.158;2023-03-14T04:30:53;4.90;;;1.67;;
20758;SDS011;10539;53.686;9.158;2023-03-14T04:33:19;14.10;;;1.90;;
20758;SDS011;10539;53.686;9.158;2023-03-14T04:35:45;9.63;;;2.20;;
20758;SDS011;10539;53.686;9.158;2023-03-14T04:38:11;8.50;;;1.90;;
20758;SDS011;10539;53.686;9.158;2023-03-14T04:40:38;9.07;;;2.10;;
20758;SDS011;10539;53.686;9.158;2023-03-14T04:43:05;9.27;;;2.10;;
20758;SDS011;10539;53.686;9.158;2023-03-14T04:45:32;12.47;;;2.60;;
20758;SDS011;10539;53.686;9.158;2023-03-14T04:47:58;8.67;;;2.40;;
20758;SDS011;10539;53.686;9.158;2023-03-14T04:50:23;10.13;;;2.40;;
20758;SDS011;10539;53.686;9.158;2023-03-14T04:52:49;15.13;;;3.23;;
20758;SDS011;10539;53.686;9.158;2023-03-14T04:55:15;11.43;;;2.50;;
20758;SDS011;10539;53.686;9.158;2023-03-14T04:57:41;10.27;;;2.60;;
20758;SDS011;10539;53.686;9.158;2023-03-14T05:00:06;9.20;;;2.63;;
20758;SDS011;10539;53.686;9.158;2023-03-14T05:02:34;11.93;;;2.43;;
20758;SDS011;10539;53.686;9.158;2023-03-14T05:05:00;13.20;;;3.07;;
20758;SDS011;10539;53.686;9.158;2023-03-14T05:07:26;9.33;;;2.70;;
20758;SDS011;10539;53.686;9.158;2023-03-14T05:09:52;8.37;;;2.97;;
20758;SDS011;10539;53.686;9.158;2023-03-14T05:12:21;12.23;;;2.90;;
20758;SDS011;10539;53.686;9.158;2023-03-14T05:14:47;12.73;;;2.87;;
20758;SDS011;10539;53.686;9.158;2023-03-14T05:17:13;9.87;;;2.70;;
20758;SDS011;10539;53.686;9.158;2023-03-14T05:19:40;10.83;;;2.63;;
20758;SDS011;10539;53.686;9.158;2023-03-14T05:22:06;9.07;;;2.63;;
20758;SDS011;10539;53.686;9.158;2023-03-14T05:24:32;8.23;;;2.87;;
20758;SDS011;10539;53.686;9.158;2023-03-14T05:26:58;8.30;;;2.53;;
20758;SDS011;10539;53.686;9.158;2023-03-14T05:29:24;10.87;;;2.50;;
20758;SDS011;10539;53.686;9.158;2023-03-14T05:31:50;12.27;;;2.80;;
20758;SDS011;10539;53.686;9.158;2023-03-14T05:34:16;11.83;;;2.60;;
20758;SDS011;10539;53.686;9.158;2023-03-14T05:36:42;12.73;;;2.50;;
20758;SDS011;10539;53.686;9.158;2023-03-14T05:39:07;7.10;;;2.43;;
20758;SDS011;10539;53.686;9.158;2023-03-14T05:41:33;7.80;;;2.70;;
20758;SDS011;10539;53.686;9.158;2023-03-14T05:43:59;6.50;;;2.37;;
20758;SDS011;10539;53.686;9.158;2023-03-14T05:46:24;8.13;;;3.10;;
20758;SDS011;10539;53.686;9.158;2023-03-14T05:48:50;7.33;;;2.90;;
20758;SDS011;10539;53.686;9.158;2023-03-14T05:51:16;10.77;;;2.67;;
20758;SDS011;10539;53.686;9.158;2023-03-14T05:53:42;9.23;;;3.03;;
20758;SDS011;10539;53.686;9.158;2023-03-14T05:56:07;5.53;;;2.37;;
20758;SDS011;10539;53.686;9.158;2023-03-14T05:58:34;5.47;;;2.50;;
20758;SDS011;10539;53.686;9.158;2023-03-14T06:01:03;6.57;;;2.67;;
20758;SDS011;10539;53.686;9.158;2023-03-14T06:03:30;7.43;;;2.53;;
20758;SDS011;10539;53.686;9.158;2023-03-14T06:05:56;9.77;;;2.70;;
20758;SDS011;10539;53.686;9.158;2023-03-14T06:08:22;4.57;;;2.43;;
20758;SDS011;10539;53.686;9.158;2023-03-14T06:10:48;8.27;;;3.07;;
20758;SDS011;10539;53.686;9.158;2023-03-14T06:13:13;5.37;;;2.30;;
20758;SDS011;10539;53.686;9.158;2023-03-14T06:15:40;8.13;;;2.60;;
20758;SDS011;10539;53.686;9.158;2023-03-14T06:18:06;5.03;;;2.70;;
20758;SDS011;10539;53.686;9.158;2023-03-14T06:20:32;8.30;;;2.60;;
20758;SDS011;10539;53.686;9.158;2023-03-14T06:23:00;8.83;;;2.60;;
20758;SDS011;10539;53.686;9.158;2023-03-14T06:25:26;9.50;;;2.77;;
20758;SDS011;10539;53.686;9.158;2023-03-14T06:27:52;8.10;;;2.80;;
20758;SDS011;10539;53.686;9.158;2023-03-14T06:30:17;10.00;;;2.53;;
20758;SDS011;10539;53.686;9.158;2023-03-14T06:32:43;7.27;;;2.70;;
20758;SDS011;10539;53.686;9.158;2023-03-14T06:35:10;8.47;;;2.30;;
20758;SDS011;10539;53.686;9.158;2023-03-14T06:37:36;7.17;;;2.63;;
20758;SDS011;10539;53.686;9.158;2023-03-14T06:40:01;8.40;;;2.67;;
20758;SDS011;10539;53.686;9.158;2023-03-14T06:42:27;10.70;;;2.70;;
20758;SDS011;10539;53.686;9.158;2023-03-14T06:44:53;8.13;;;2.47;;
20758;SDS011;10539;53.686;9.158;2023-03-14T06:47:19;8.27;;;2.47;;
20758;SDS011;10539;53.686;9.158;2023-03-14T06:49:44;8.13;;;2.20;;
20758;SDS011;10539;53.686;9.158;2023-03-14T06:52:10;11.50;;;2.73;;
20758;SDS011;10539;53.686;9.158;2023-03-14T06:54:36;7.53;;;2.33;;
20758;SDS011;10539;53.686;9.158;2023-03-14T06:57:02;10.10;;;2.37;;
20758;SDS011;10539;53.686;9.158;2023-03-14T06:59:28;8.53;;;2.47;;
20758;SDS011;10539;53.686;9.158;2023-03-14T07:01:53;10.70;;;2.50;;
20758;SDS011;10539;53.686;9.158;2023-03-14T07:04:19;7.53;;;2.57;;
20758;SDS011;10539;53.686;9.158;2023-03-14T07:06:45;6.27;;;2.47;;
20758;SDS011;10539;53.686;9.158;2023-03-14T07:09:12;6.57;;;2.20;;
20758;SDS011;10539;53.686;9.158;2023-03-14T07:11:37;8.43;;;2.47;;
20758;SDS011;10539;53.686;9.158;2023-03-14T07:14:03;9.00;;;2.50;;
20758;SDS011;10539;53.686;9.158;2023-03-14T07:16:29;9.50;;;2.70;;
20758;SDS011;10539;53.686;9.158;2023-03-14T07:18:58;8.17;;;2.20;;
20758;SDS011;10539;53.686;9.158;2023-03-14T07:21:24;6.20;;;2.43;;
20758;SDS011;10539;53.686;9.158;2023-03-14T07:23:50;7.83;;;2.13;;
20758;SDS011;10539;53.686;9.158;2023-03-14T07:26:16;5.80;;;2.00;;
20758;SDS011;10539;53.686;9.158;2023-03-14T07:28:41;6.67;;;1.93;;
20758;SDS011;10539;53.686;9.158;2023-03-14T07:31:07;6.63;;;2.60;;
20758;SDS011;10539;53.686;9.158;2023-03-14T07:33:33;7.37;;;1.50;;
20758;SDS011;10539;53.686;9.158;2023-03-14T07:35:58;8.83;;;2.20;;
20758;SDS011;10539;53.686;9.158;2023-03-14T07:38:24;7.37;;;2.60;;
20758;SDS011;10539;53.686;9.158;2023-03-14T07:40:50;11.20;;;2.47;;
20758;SDS011;10539;53.686;9.158;2023-03-14T07:43:22;11.40;;;2.53;;
20758;SDS011;10539;53.686;9.158;2023-03-14T07:45:47;12.10;;;2.80;;
20758;SDS011;10539;53.686;9.158;2023-03-14T07:48:13;8.10;;;2.40;;
20758;SDS011;10539;53.686;9.158;2023-03-14T07:50:39;6.03;;;2.20;;
20758;SDS011;10539;53.686;9.158;2023-03-14T07:53:05;6.67;;;2.60;;
20758;SDS011;10539;53.686;9.158;2023-03-14T07:55:30;5.80;;;2.10;;
20758;SDS011;10539;53.686;9.158;2023-03-14T07:57:56;7.30;;;2.47;;
20758;SDS011;10539;53.686;9.158;2023-03-14T08:00:21;10.83;;;2.80;;
20758;SDS011;10539;53.686;9.158;2023-03-14T08:02:47;7.00;;;2.83;;
20758;SDS011;10539;53.686;9.158;2023-03-14T08:05:13;9.97;;;2.87;;
20758;SDS011;10539;53.686;9.158;2023-03-14T08:07:39;8.57;;;2.30;;
20758;SDS011;10539;53.686;9.158;2023-03-14T08:10:04;9.53;;;3.30;;
20758;SDS011;10539;53.686;9.158;2023-03-14T08:12:31;9.63;;;3.03;;
20758;SDS011;10539;53.686;9.158;2023-03-14T08:14:56;7.83;;;2.80;;
20758;SDS011;10539;53.686;9.158;2023-03-14T08:17:22;8.97;;;3.33;;
20758;SDS011;10539;53.686;9.158;2023-03-14T08:19:48;8.27;;;3.20;;
20758;SDS011;10539;53.686;9.158;2023-03-14T08:22:13;10.37;;;3.47;;
20758;SDS011;10539;53.686;9.158;2023-03-14T08:24:39;11.57;;;3.67;;
20758;SDS011;10539;53.686;9.158;2023-03-14T08:27:06;11.33;;;3.00;;
20758;SDS011;10539;53.686;9.158;2023-03-14T08:29:31;10.13;;;3.03;;
20758;SDS011;10539;53.686;9.158;2023-03-14T08:31:57;8.17;;;3.40;;
20758;SDS011;10539;53.686;9.158;2023-03-14T08:34:23;11.87;;;3.77;;
20758;SDS011;10539;53.686;9.158;2023-03-14T08:36:49;8.50;;;3.23;;
20758;SDS011;10539;53.686;9.158;2023-03-14T08:39:15;8.70;;;3.20;;
20758;SDS011;10539;53.686;9.158;2023-03-14T08:41:40;6.83;;;1.60;;
20758;SDS011;10539;53.686;9.158;2023-03-14T08:44:08;6.83;;;0.87;;
20758;SDS011;10539;53.686;9.158;2023-03-14T08:46:34;2.43;;;0.80;;
20758;SDS011;10539;53.686;9.158;2023-03-14T08:49:00;5.17;;;0.70;;
20758;SDS011;10539;53.686;9.158;2023-03-14T08:51:26;6.07;;;1.17;;
20758;SDS011;10539;53.686;9.158;2023-03-14T08:53:52;4.67;;;0.80;;
20758;SDS011;10539;53.686;9.158;2023-03-14T08:56:17;2.67;;;0.90;;
20758;SDS011;10539;53.686;9.158;2023-03-14T08:58:43;6.30;;;1.03;;
20758;SDS011;10539;53.686;9.158;2023-03-14T09:01:09;4.77;;;0.50;;
20758;SDS011;10539;53.686;9.158;2023-03-14T09:03:36;4.57;;;0.60;;
20758;SDS011;10539;53.686;9.158;2023-03-14T09:06:06;1.50;;;0.30;;
20758;SDS011;10539;53.686;9.158;2023-03-14T09:08:33;2.67;;;0.20;;
20758;SDS011;10539;53.686;9.158;2023-03-14T09:10:59;2.50;;;0.50;;
20758;SDS011;10539;53.686;9.158;2023-03-14T09:13:25;2.87;;;0.50;;
20758;SDS011;10539;53.686;9.158;2023-03-14T09:15:51;1.50;;;0.53;;
20758;SDS011;10539;53.686;9.158;2023-03-14T09:18:18;0.63;;;0.23;;
20758;SDS011;10539;53.686;9.158;2023-03-14T09:20:44;3.80;;;0.50;;
20758;SDS011;10539;53.686;9.158;2023-03-14T09:23:10;3.03;;;0.40;;
20758;SDS011;10539;53.686;9.158;2023-03-14T09:25:35;1.07;;;0.33;;
20758;SDS011;10539;53.686;9.158;2023-03-14T09:28:01;4.60;;;0.50;;
20758;SDS011;10539;53.686;9.158;2023-03-14T09:30:27;0.83;;;0.20;;
20758;SDS011;10539;53.686;9.158;2023-03-14T09:32:53;1.80;;;0.30;;
20758;SDS011;10539;53.686;9.158;2023-03-14T09:35:18;0.20;;;0.10;;
20758;SDS011;10539;53.686;9.158;2023-03-14T09:37:44;3.13;;;0.33;;
20758;SDS011;10539;53.686;9.158;2023-03-14T09:40:13;0.47;;;0.10;;
20758;SDS011;10539;53.686;9.158;2023-03-14T09:42:40;0.00;;;0.00;;
20758;SDS011;10539;53.686;9.158;2023-03-14T09:45:10;0.70;;;0.20;;
20758;SDS011;10539;53.686;9.158;2023-03-14T09:47:40;0.00;;;0.00;;
20758;SDS011;10539;53.686;9.158;2023-03-14T09:50:13;0.83;;;0.10;;
20758;SDS011;10539;53.686;9.158;2023-03-14T09:52:41;1.30;;;0.10;;
20758;SDS011;10539;53.686;9.158;2023-03-14T09:55:18;0.30;;;0.03;;
20758;SDS011;10539;53.686;9.158;2023-03-14T09:57:46;0.70;;;0.07;;
20758;SDS011;10539;53.686;9.158;2023-03-14T10:00:21;0.10;;;0.10;;
20758;SDS011;10539;53.686;9.158;2023-03-14T10:03:09;0.17;;;0.17;;
20758;SDS011;10539;53.686;9.158;2023-03-14T10:05:46;0.40;;;0.20;;
20758;SDS011;10539;53.686;9.158;2023-03-14T10:08:13;0.83;;;0.10;;
20758;SDS011;10539;53.686;9.158;2023-03-14T10:10:39;0.93;;;0.40;;
20758;SDS011;10539;53.686;9.158;2023-03-14T10:15:53;0.47;;;0.13;;
20758;SDS011;10539;53.686;9.158;2023-03-14T10:18:22;0.77;;;0.10;;
20758;SDS011;10539;53.686;9.158;2023-03-14T10:20:49;2.67;;;0.50;;
20758;SDS011;10539;53.686;9.158;2023-03-14T10:23:29;0.00;;;0.00;;
20758;SDS011;10539;53.686;9.158;2023-03-14T10:26:05;1.50;;;0.40;;
20758;SDS011;10539;53.686;9.158;2023-03-14T10:28:39;1.80;;;0.40;;
20758;SDS011;10539;53.686;9.158;2023-03-14T10:31:08;0.87;;;0.17;;
20758;SDS011;10539;53.686;9.158;2023-03-14T10:33:35;2.20;;;0.57;;
20758;SDS011;10539;53.686;9.158;2023-03-14T10:38:44;5.10;;;0.80;;
20758;SDS011;10539;53.686;9.158;2023-03-14T10:41:30;3.90;;;0.50;;
20758;SDS011;10539;53.686;9.158;2023-03-14T10:43:57;3.33;;;0.53;;
20758;SDS011;10539;53.686;9.158;2023-03-14T10:46:25;6.90;;;0.40;;
20758;SDS011;10539;53.686;9.158;2023-03-14T10:48:54;0.77;;;0.23;;
20758;SDS011;10539;53.686;9.158;2023-03-14T10:51:29;1.50;;;0.27;;
20758;SDS011;10539;53.686;9.158;2023-03-14T10:56:24;3.30;;;0.60;;
20758;SDS011;10539;53.686;9.158;2023-03-14T10:59:01;4.40;;;0.43;;
20758;SDS011;10539;53.686;9.158;2023-03-14T11:11:53;1.97;;;0.37;;
20758;SDS011;10539;53.686;9.158;2023-03-14T11:14:33;4.97;;;0.83;;
20758;SDS011;10539;53.686;9.158;2023-03-14T11:17:19;2.77;;;0.87;;
20758;SDS011;10539;53.686;9.158;2023-03-14T11:20:17;6.00;;;0.70;;
20758;SDS011;10539;53.686;9.158;2023-03-14T11:23:07;6.33;;;0.83;;
20758;SDS011;10539;53.686;9.158;2023-03-14T11:25:45;6.17;;;1.30;;
20758;SDS011;10539;53.686;9.158;2023-03-14T11:28:23;6.03;;;1.50;;
20758;SDS011;10539;53.686;9.158;2023-03-14T11:31:41;5.47;;;1.00;;
20758;SDS011;10539;53.686;9.158;2023-03-14T11:34:27;9.17;;;1.23;;
20758;SDS011;10539;53.686;9.158;2023-03-14T11:36:53;10.73;;;1.00;;
20758;SDS011;10539;53.686;9.158;2023-03-14T11:39:26;12.00;;;1.40;;
20758;SDS011;10539;53.686;9.158;2023-03-14T11:42:02;8.77;;;1.20;;
20758;SDS011;10539;53.686;9.158;2023-03-14T11:44:30;16.87;;;1.60;;
20758;SDS011;10539;53.686;9.158;2023-03-14T11:47:06;9.33;;;1.60;;
20758;SDS011;10539;53.686;9.158;2023-03-14T11:49:38;10.10;;;1.30;;
20758;SDS011;10539;53.686;9.158;2023-03-14T11:52:42;8.57;;;1.20;;
20758;SDS011;10539;53.686;9.158;2023-03-14T11:57:51;17.93;;;2.10;;
20758;SDS011;10539;53.686;9.158;2023-03-14T12:00:21;8.87;;;1.17;;
20758;SDS011;10539;53.686;9.158;2023-03-14T12:02:50;10.90;;;1.30;;
20758;SDS011;10539;53.686;9.158;2023-03-14T12:10:52;16.87;;;2.20;;
20758;SDS011;10539;53.686;9.158;2023-03-14T12:13:20;3.90;;;0.80;;
20758;SDS011;10539;53.686;9.158;2023-03-14T12:15:53;12.50;;;2.00;;
20758;SDS011;10539;53.686;9.158;2023-03-14T12:18:34;8.27;;;1.13;;
20758;SDS011;10539;53.686;9.158;2023-03-14T12:21:04;14.63;;;1.93;;
20758;SDS011;10539;53.686;9.158;2023-03-14T12:23:36;11.57;;;1.30;;
20758;SDS011;10539;53.686;9.158;2023-03-14T12:28:37;7.10;;;1.27;;
20758;SDS011;10539;53.686;9.158;2023-03-14T12:39:19;12.63;;;1.13;;
20758;SDS011;10539;53.686;9.158;2023-03-14T12:47:26;8.07;;;1.00;;
20758;SDS011;10539;53.686;9.158;2023-03-14T12:49:43;4.23;;;0.73;;
20758;SDS011;10539;53.686;9.158;2023-03-14T12:55:45;8.67;;;1.47;;
20758;SDS011;10539;53.686;9.158;2023-03-14T12:58:24;6.70;;;1.33;;
20758;SDS011;10539;53.686;9.158;2023-03-14T13:01:01;8.40;;;1.17;;
20758;SDS011;10539;53.686;9.158;2023-03-14T13:06:10;2.20;;;0.63;;
20758;SDS011;10539;53.686;9.158;2023-03-14T13:08:38;10.03;;;1.40;;
20758;SDS011;10539;53.686;9.158;2023-03-14T13:11:29;8.33;;;1.43;;
20758;SDS011;10539;53.686;9.158;2023-03-14T13:13:57;6.57;;;1.20;;
20758;SDS011;10539;53.686;9.158;2023-03-14T13:16:24;11.13;;;1.00;;
20758;SDS011;10539;53.686;9.158;2023-03-14T13:18:58;9.77;;;1.20;;
20758;SDS011;10539;53.686;9.158;2023-03-14T13:21:27;4.77;;;0.90;;
20758;SDS011;10539;53.686;9.158;2023-03-14T13:24:01;9.97;;;1.17;;
20758;SDS011;10539;53.686;9.158;2023-03-14T13:26:37;5.20;;;0.73;;
20758;SDS011;10539;53.686;9.158;2023-03-14T13:31:50;9.33;;;1.13;;
20758;SDS011;10539;53.686;9.158;2023-03-14T13:34:18;9.40;;;1.67;;
20758;SDS011;10539;53.686;9.158;2023-03-14T13:36:44;7.03;;;1.03;;
20758;SDS011;10539;53.686;9.158;2023-03-14T13:39:10;3.53;;;0.60;;
20758;SDS011;10539;53.686;9.158;2023-03-14T13:41:39;8.57;;;1.47;;
20758;SDS011;10539;53.686;9.158;2023-03-14T13:44:07;5.57;;;1.30;;
20758;SDS011;10539;53.686;9.158;2023-03-14T13:46:34;7.90;;;1.43;;
20758;SDS011;10539;53.686;9.158;2023-03-14T13:49:02;19.33;;;1.20;;
20758;SDS011;10539;53.686;9.158;2023-03-14T13:51:30;6.67;;;1.40;;
20758;SDS011;10539;53.686;9.158;2023-03-14T13:54:00;9.20;;;1.30;;
20758;SDS011;10539;53.686;9.158;2023-03-14T13:56:29;10.07;;;1.47;;
20758;SDS011;10539;53.686;9.158;2023-03-14T13:58:57;9.27;;;1.70;;
20758;SDS011;10539;53.686;9.158;2023-03-14T14:01:30;8.23;;;1.37;;
20758;SDS011;10539;53.686;9.158;2023-03-14T14:04:02;12.00;;;1.80;;
20758;SDS011;10539;53.686;9.158;2023-03-14T14:06:44;17.83;;;1.57;;
20758;SDS011;10539;53.686;9.158;2023-03-14T14:09:16;14.37;;;1.63;;
20758;SDS011;10539;53.686;9.158;2023-03-14T14:11:51;10.10;;;1.70;;
20758;SDS011;10539;53.686;9.158;2023-03-14T14:14:25;9.87;;;1.13;;
20758;SDS011;10539;53.686;9.158;2023-03-14T14:16:58;2.23;;;0.80;;
20758;SDS011;10539;53.686;9.158;2023-03-14T14:19:27;4.57;;;0.80;;
20758;SDS011;10539;53.686;9.158;2023-03-14T14:21:54;8.33;;;1.67;;
20758;SDS011;10539;53.686;9.158;2023-03-14T14:24:22;4.93;;;1.10;;
20758;SDS011;10539;53.686;9.158;2023-03-14T14:26:54;8.77;;;1.97;;
20758;SDS011;10539;53.686;9.158;2023-03-14T14:34:26;10.30;;;1.63;;
20758;SDS011;10539;53.686;9.158;2023-03-14T14:36:52;8.47;;;1.70;;
20758;SDS011;10539;53.686;9.158;2023-03-14T14:39:23;8.10;;;1.03;;
20758;SDS011;10539;53.686;9.158;2023-03-14T14:41:51;9.53;;;1.13;;
20758;SDS011;10539;53.686;9.158;2023-03-14T14:44:24;14.80;;;2.10;;
20758;SDS011;10539;53.686;9.158;2023-03-14T14:46:55;12.47;;;1.70;;
20758;SDS011;10539;53.686;9.158;2023-03-14T14:49:28;7.43;;;1.70;;
20758;SDS011;10539;53.686;9.158;2023-03-14T14:52:00;12.97;;;1.80;;
20758;SDS011;10539;53.686;9.158;2023-03-14T14:55:12;8.47;;;1.13;;
20758;SDS011;10539;53.686;9.158;2023-03-14T14:57:26;12.47;;;1.57;;
20758;SDS011;10539;53.686;9.158;2023-03-14T14:59:56;4.83;;;0.70;;
20758;SDS011;10539;53.686;9.158;2023-03-14T15:02:35;6.40;;;0.77;;
20758;SDS011;10539;53.686;9.158;2023-03-14T15:05:15;5.80;;;1.60;;
20758;SDS011;10539;53.686;9.158;2023-03-14T15:07:43;11.90;;;1.40;;
20758;SDS011;10539;53.686;9.158;2023-03-14T15:10:16;7.23;;;1.27;;
20758;SDS011;10539;53.686;9.158;2023-03-14T15:12:47;15.13;;;1.83;;
20758;SDS011;10539;53.686;9.158;2023-03-14T15:15:13;8.40;;;1.20;;
20758;SDS011;10539;53.686;9.158;2023-03-14T15:17:39;7.27;;;1.10;;
20758;SDS011;10539;53.686;9.158;2023-03-14T15:20:06;6.97;;;1.17;;
20758;SDS011;10539;53.686;9.158;2023-03-14T15:22:35;5.43;;;1.20;;
20758;SDS011;10539;53.686;9.158;2023-03-14T15:25:01;8.87;;;1.20;;
20758;SDS011;10539;53.686;9.158;2023-03-14T15:27:27;13.23;;;1.40;;
20758;SDS011;10539;53.686;9.158;2023-03-14T15:29:55;10.20;;;1.07;;
20758;SDS011;10539;53.686;9.158;2023-03-14T15:32:21;9.27;;;0.97;;
20758;SDS011;10539;53.686;9.158;2023-03-14T15:34:47;10.73;;;1.23;;
20758;SDS011;10539;53.686;9.158;2023-03-14T15:37:13;13.73;;;1.03;;
20758;SDS011;10539;53.686;9.158;2023-03-14T15:39:41;7.13;;;0.90;;
20758;SDS011;10539;53.686;9.158;2023-03-14T15:42:10;5.97;;;0.70;;
20758;SDS011;10539;53.686;9.158;2023-03-14T15:44:36;7.33;;;1.03;;
20758;SDS011;10539;53.686;9.158;2023-03-14T15:47:02;6.50;;;1.07;;
20758;SDS011;10539;53.686;9.158;2023-03-14T15:49:28;8.70;;;1.30;;
20758;SDS011;10539;53.686;9.158;2023-03-14T15:51:55;5.70;;;1.10;;
20758;SDS011;10539;53.686;9.158;2023-03-14T15:54:20;10.70;;;1.30;;
20758;SDS011;10539;53.686;9.158;2023-03-14T15:56:46;6.77;;;1.33;;